sensor_id;sensor_type;location;lat;lon;timestamp;P1;durP1;ratioP1;P2;durP2;ratioP2
36253;SDS011;22291;52.250;21.228;2023-04-24T00:00:46;13.93;;;8.95;;
36253;SDS011;22291;52.250;21.228;2023-04-24T00:03:14;11.45;;;8.90;;
36253;SDS011;22291;52.250;21.228;2023-04-24T00:05:40;14.03;;;9.10;;
36253;SDS011;22291;52.250;21.228;2023-04-24T00:08:07;13.55;;;9.05;;
36253;SDS011;22291;52.250;21.228;2023-04-24T00:10:33;14.45;;;10.00;;
36253;SDS011;22291;52.250;21.228;2023-04-24T00:13:00;13.35;;;9.75;;
36253;SDS011;22291;52.250;21.228;2023-04-24T00:15:26;15.30;;;10.43;;
36253;SDS011;22291;52.250;21.228;2023-04-24T00:17:52;13.60;;;9.38;;
36253;SDS011;22291;52.250;21.228;2023-04-24T00:20:19;16.52;;;10.65;;
36253;SDS011;22291;52.250;21.228;2023-04-24T00:22:46;15.03;;;9.48;;
36253;SDS011;22291;52.250;21.228;2023-04-24T00:25:12;12.90;;;9.48;;
36253;SDS011;22291;52.250;21.228;2023-04-24T00:27:39;15.32;;;9.85;;
36253;SDS011;22291;52.250;21.228;2023-04-24T00:30:06;16.55;;;10.63;;
36253;SDS011;22291;52.250;21.228;2023-04-24T00:32:33;15.28;;;9.60;;
36253;SDS011;22291;52.250;21.228;2023-04-24T00:35:01;14.98;;;9.68;;
36253;SDS011;22291;52.250;21.228;2023-04-24T00:37:29;14.58;;;10.00;;
36253;SDS011;22291;52.250;21.228;2023-04-24T00:39:56;17.40;;;10.88;;
36253;SDS011;22291;52.250;21.228;2023-04-24T00:42:22;14.98;;;9.75;;
36253;SDS011;22291;52.250;21.228;2023-04-24T00:44:50;13.60;;;10.23;;
36253;SDS011;22291;52.250;21.228;2023-04-24T00:47:17;14.10;;;10.00;;
36253;SDS011;22291;52.250;21.228;2023-04-24T00:49:47;15.95;;;10.93;;
36253;SDS011;22291;52.250;21.228;2023-04-24T00:52:13;16.90;;;11.08;;
36253;SDS011;22291;52.250;21.228;2023-04-24T00:54:41;13.65;;;9.23;;
36253;SDS011;22291;52.250;21.228;2023-04-24T00:57:08;14.40;;;10.15;;
36253;SDS011;22291;52.250;21.228;2023-04-24T00:59:34;14.83;;;10.00;;
36253;SDS011;22291;52.250;21.228;2023-04-24T01:02:01;15.95;;;9.98;;
36253;SDS011;22291;52.250;21.228;2023-04-24T01:04:27;17.17;;;10.13;;
36253;SDS011;22291;52.250;21.228;2023-04-24T01:06:55;15.78;;;10.15;;
36253;SDS011;22291;52.250;21.228;2023-04-24T01:09:23;15.32;;;10.10;;
36253;SDS011;22291;52.250;21.228;2023-04-24T01:11:50;14.35;;;10.20;;
36253;SDS011;22291;52.250;21.228;2023-04-24T01:14:16;16.42;;;10.70;;
36253;SDS011;22291;52.250;21.228;2023-04-24T01:16:43;16.70;;;10.48;;
36253;SDS011;22291;52.250;21.228;2023-04-24T01:19:10;14.87;;;10.35;;
36253;SDS011;22291;52.250;21.228;2023-04-24T01:21:38;15.43;;;10.70;;
36253;SDS011;22291;52.250;21.228;2023-04-24T01:24:06;16.67;;;10.30;;
36253;SDS011;22291;52.250;21.228;2023-04-24T01:26:33;14.07;;;10.18;;
36253;SDS011;22291;52.250;21.228;2023-04-24T01:29:01;16.23;;;10.18;;
36253;SDS011;22291;52.250;21.228;2023-04-24T01:31:28;15.78;;;10.63;;
36253;SDS011;22291;52.250;21.228;2023-04-24T01:33:56;15.50;;;10.48;;
36253;SDS011;22291;52.250;21.228;2023-04-24T01:36:23;18.35;;;11.05;;
36253;SDS011;22291;52.250;21.228;2023-04-24T01:38:52;15.30;;;10.68;;
36253;SDS011;22291;52.250;21.228;2023-04-24T01:41:19;19.55;;;10.43;;
36253;SDS011;22291;52.250;21.228;2023-04-24T01:43:46;12.28;;;10.28;;
36253;SDS011;22291;52.250;21.228;2023-04-24T01:46:14;16.62;;;9.93;;
36253;SDS011;22291;52.250;21.228;2023-04-24T01:48:41;15.43;;;9.83;;
36253;SDS011;22291;52.250;21.228;2023-04-24T01:51:07;15.50;;;10.70;;
36253;SDS011;22291;52.250;21.228;2023-04-24T01:53:34;17.52;;;10.80;;
36253;SDS011;22291;52.250;21.228;2023-04-24T01:56:00;17.27;;;10.95;;
36253;SDS011;22291;52.250;21.228;2023-04-24T01:58:28;14.50;;;11.03;;
36253;SDS011;22291;52.250;21.228;2023-04-24T02:00:56;14.98;;;10.13;;
36253;SDS011;22291;52.250;21.228;2023-04-24T02:03:25;18.95;;;11.50;;
36253;SDS011;22291;52.250;21.228;2023-04-24T02:05:52;14.50;;;10.55;;
36253;SDS011;22291;52.250;21.228;2023-04-24T02:08:18;14.05;;;10.90;;
36253;SDS011;22291;52.250;21.228;2023-04-24T02:10:44;20.10;;;11.18;;
36253;SDS011;22291;52.250;21.228;2023-04-24T02:13:10;13.40;;;10.05;;
36253;SDS011;22291;52.250;21.228;2023-04-24T02:15:36;15.08;;;10.70;;
36253;SDS011;22291;52.250;21.228;2023-04-24T02:18:02;16.32;;;11.25;;
36253;SDS011;22291;52.250;21.228;2023-04-24T02:20:28;17.12;;;10.60;;
36253;SDS011;22291;52.250;21.228;2023-04-24T02:22:54;15.48;;;11.38;;
36253;SDS011;22291;52.250;21.228;2023-04-24T02:25:21;17.52;;;10.75;;
36253;SDS011;22291;52.250;21.228;2023-04-24T02:27:48;16.67;;;10.23;;
36253;SDS011;22291;52.250;21.228;2023-04-24T02:30:14;14.65;;;11.75;;
36253;SDS011;22291;52.250;21.228;2023-04-24T02:32:40;15.93;;;11.03;;
36253;SDS011;22291;52.250;21.228;2023-04-24T02:35:07;14.65;;;10.25;;
36253;SDS011;22291;52.250;21.228;2023-04-24T02:37:35;16.82;;;10.58;;
36253;SDS011;22291;52.250;21.228;2023-04-24T02:40:01;16.75;;;9.88;;
36253;SDS011;22291;52.250;21.228;2023-04-24T02:42:28;16.20;;;10.05;;
36253;SDS011;22291;52.250;21.228;2023-04-24T02:44:54;14.85;;;10.25;;
36253;SDS011;22291;52.250;21.228;2023-04-24T02:47:20;14.23;;;9.83;;
36253;SDS011;22291;52.250;21.228;2023-04-24T02:49:46;14.65;;;10.60;;
36253;SDS011;22291;52.250;21.228;2023-04-24T02:52:13;17.42;;;10.98;;
36253;SDS011;22291;52.250;21.228;2023-04-24T02:54:40;17.92;;;11.63;;
36253;SDS011;22291;52.250;21.228;2023-04-24T02:57:06;14.63;;;10.80;;
36253;SDS011;22291;52.250;21.228;2023-04-24T02:59:32;15.63;;;11.33;;
36253;SDS011;22291;52.250;21.228;2023-04-24T03:01:59;14.28;;;10.88;;
36253;SDS011;22291;52.250;21.228;2023-04-24T03:04:26;14.18;;;10.50;;
36253;SDS011;22291;52.250;21.228;2023-04-24T03:06:53;15.08;;;10.85;;
36253;SDS011;22291;52.250;21.228;2023-04-24T03:09:23;14.83;;;11.90;;
36253;SDS011;22291;52.250;21.228;2023-04-24T03:11:49;19.07;;;12.13;;
36253;SDS011;22291;52.250;21.228;2023-04-24T03:14:16;15.35;;;11.40;;
36253;SDS011;22291;52.250;21.228;2023-04-24T03:16:42;16.02;;;11.48;;
36253;SDS011;22291;52.250;21.228;2023-04-24T03:19:08;16.55;;;11.75;;
36253;SDS011;22291;52.250;21.228;2023-04-24T03:21:35;18.35;;;10.90;;
36253;SDS011;22291;52.250;21.228;2023-04-24T03:24:01;20.97;;;11.12;;
36253;SDS011;22291;52.250;21.228;2023-04-24T03:26:28;16.50;;;11.22;;
36253;SDS011;22291;52.250;21.228;2023-04-24T03:28:54;14.58;;;11.18;;
36253;SDS011;22291;52.250;21.228;2023-04-24T03:31:20;19.37;;;10.43;;
36253;SDS011;22291;52.250;21.228;2023-04-24T03:33:46;16.85;;;11.53;;
36253;SDS011;22291;52.250;21.228;2023-04-24T03:36:12;14.87;;;11.05;;
36253;SDS011;22291;52.250;21.228;2023-04-24T03:38:39;17.62;;;11.43;;
36253;SDS011;22291;52.250;21.228;2023-04-24T03:41:05;14.45;;;11.30;;
36253;SDS011;22291;52.250;21.228;2023-04-24T03:43:31;15.13;;;10.72;;
36253;SDS011;22291;52.250;21.228;2023-04-24T03:46:00;17.25;;;10.93;;
36253;SDS011;22291;52.250;21.228;2023-04-24T03:48:26;19.30;;;11.85;;
36253;SDS011;22291;52.250;21.228;2023-04-24T03:50:52;17.37;;;12.47;;
36253;SDS011;22291;52.250;21.228;2023-04-24T03:53:19;14.43;;;10.78;;
36253;SDS011;22291;52.250;21.228;2023-04-24T03:55:45;16.57;;;11.30;;
36253;SDS011;22291;52.250;21.228;2023-04-24T03:58:12;15.90;;;11.43;;
36253;SDS011;22291;52.250;21.228;2023-04-24T04:00:40;17.67;;;11.85;;
36253;SDS011;22291;52.250;21.228;2023-04-24T04:03:06;14.65;;;11.20;;
36253;SDS011;22291;52.250;21.228;2023-04-24T04:05:32;15.90;;;11.60;;
36253;SDS011;22291;52.250;21.228;2023-04-24T04:07:58;14.83;;;11.05;;
36253;SDS011;22291;52.250;21.228;2023-04-24T04:10:24;18.02;;;11.22;;
36253;SDS011;22291;52.250;21.228;2023-04-24T04:12:50;14.23;;;10.75;;
36253;SDS011;22291;52.250;21.228;2023-04-24T04:15:17;17.73;;;10.90;;
36253;SDS011;22291;52.250;21.228;2023-04-24T04:17:43;14.83;;;11.30;;
36253;SDS011;22291;52.250;21.228;2023-04-24T04:20:12;14.50;;;10.43;;
36253;SDS011;22291;52.250;21.228;2023-04-24T04:22:40;17.95;;;11.08;;
36253;SDS011;22291;52.250;21.228;2023-04-24T04:25:07;20.92;;;10.88;;
36253;SDS011;22291;52.250;21.228;2023-04-24T04:27:35;15.35;;;11.95;;
36253;SDS011;22291;52.250;21.228;2023-04-24T04:30:02;15.58;;;11.40;;
36253;SDS011;22291;52.250;21.228;2023-04-24T04:32:31;16.60;;;12.18;;
36253;SDS011;22291;52.250;21.228;2023-04-24T04:34:59;16.12;;;11.63;;
36253;SDS011;22291;52.250;21.228;2023-04-24T04:37:29;17.32;;;11.38;;
36253;SDS011;22291;52.250;21.228;2023-04-24T04:40:01;15.10;;;11.45;;
36253;SDS011;22291;52.250;21.228;2023-04-24T04:42:26;13.60;;;10.90;;
36253;SDS011;22291;52.250;21.228;2023-04-24T04:44:54;16.10;;;11.18;;
36253;SDS011;22291;52.250;21.228;2023-04-24T04:47:21;20.50;;;12.43;;
36253;SDS011;22291;52.250;21.228;2023-04-24T04:49:49;16.15;;;11.00;;
36253;SDS011;22291;52.250;21.228;2023-04-24T04:52:18;17.02;;;11.25;;
36253;SDS011;22291;52.250;21.228;2023-04-24T04:54:45;13.00;;;10.25;;
36253;SDS011;22291;52.250;21.228;2023-04-24T04:57:11;14.38;;;10.53;;
36253;SDS011;22291;52.250;21.228;2023-04-24T04:59:39;21.35;;;11.73;;
36253;SDS011;22291;52.250;21.228;2023-04-24T05:02:07;17.90;;;12.60;;
36253;SDS011;22291;52.250;21.228;2023-04-24T05:04:34;16.90;;;11.63;;
36253;SDS011;22291;52.250;21.228;2023-04-24T05:07:00;18.25;;;11.53;;
36253;SDS011;22291;52.250;21.228;2023-04-24T05:09:27;19.30;;;11.65;;
36253;SDS011;22291;52.250;21.228;2023-04-24T05:11:55;15.05;;;11.55;;
36253;SDS011;22291;52.250;21.228;2023-04-24T05:14:22;16.57;;;11.73;;
36253;SDS011;22291;52.250;21.228;2023-04-24T05:16:48;16.30;;;11.55;;
36253;SDS011;22291;52.250;21.228;2023-04-24T05:19:14;16.70;;;11.73;;
36253;SDS011;22291;52.250;21.228;2023-04-24T05:21:41;18.07;;;11.35;;
36253;SDS011;22291;52.250;21.228;2023-04-24T05:24:29;14.87;;;11.25;;
36253;SDS011;22291;52.250;21.228;2023-04-24T05:26:55;17.37;;;11.48;;
36253;SDS011;22291;52.250;21.228;2023-04-24T05:29:24;15.80;;;11.03;;
36253;SDS011;22291;52.250;21.228;2023-04-24T05:31:51;19.50;;;10.95;;
36253;SDS011;22291;52.250;21.228;2023-04-24T05:34:18;12.75;;;10.53;;
36253;SDS011;22291;52.250;21.228;2023-04-24T05:36:44;18.82;;;12.45;;
36253;SDS011;22291;52.250;21.228;2023-04-24T05:39:11;13.83;;;10.58;;
36253;SDS011;22291;52.250;21.228;2023-04-24T05:41:37;14.53;;;11.85;;
36253;SDS011;22291;52.250;21.228;2023-04-24T05:44:03;14.95;;;10.75;;
36253;SDS011;22291;52.250;21.228;2023-04-24T05:46:29;16.90;;;11.48;;
36253;SDS011;22291;52.250;21.228;2023-04-24T05:48:56;13.95;;;10.50;;
36253;SDS011;22291;52.250;21.228;2023-04-24T05:51:23;14.28;;;10.10;;
36253;SDS011;22291;52.250;21.228;2023-04-24T05:53:51;21.17;;;10.58;;
36253;SDS011;22291;52.250;21.228;2023-04-24T05:56:17;13.50;;;10.30;;
36253;SDS011;22291;52.250;21.228;2023-04-24T05:58:45;17.62;;;11.57;;
36253;SDS011;22291;52.250;21.228;2023-04-24T06:01:12;15.20;;;10.98;;
36253;SDS011;22291;52.250;21.228;2023-04-24T06:03:41;12.05;;;9.63;;
36253;SDS011;22291;52.250;21.228;2023-04-24T06:06:07;17.57;;;10.82;;
36253;SDS011;22291;52.250;21.228;2023-04-24T06:08:34;16.32;;;10.40;;
36253;SDS011;22291;52.250;21.228;2023-04-24T06:11:01;15.68;;;10.20;;
36253;SDS011;22291;52.250;21.228;2023-04-24T06:13:27;16.37;;;9.98;;
36253;SDS011;22291;52.250;21.228;2023-04-24T06:15:53;15.25;;;10.05;;
36253;SDS011;22291;52.250;21.228;2023-04-24T06:18:20;15.38;;;10.60;;
36253;SDS011;22291;52.250;21.228;2023-04-24T06:20:46;16.17;;;10.35;;
36253;SDS011;22291;52.250;21.228;2023-04-24T06:23:12;15.53;;;9.83;;
36253;SDS011;22291;52.250;21.228;2023-04-24T06:25:39;15.03;;;9.78;;
36253;SDS011;22291;52.250;21.228;2023-04-24T06:28:05;13.48;;;10.43;;
36253;SDS011;22291;52.250;21.228;2023-04-24T06:30:31;16.23;;;10.38;;
36253;SDS011;22291;52.250;21.228;2023-04-24T06:32:57;16.97;;;10.28;;
36253;SDS011;22291;52.250;21.228;2023-04-24T06:35:24;17.62;;;9.15;;
36253;SDS011;22291;52.250;21.228;2023-04-24T06:37:50;17.82;;;9.98;;
36253;SDS011;22291;52.250;21.228;2023-04-24T06:40:17;15.70;;;9.80;;
36253;SDS011;22291;52.250;21.228;2023-04-24T06:42:46;13.38;;;9.45;;
36253;SDS011;22291;52.250;21.228;2023-04-24T06:45:12;18.10;;;10.70;;
36253;SDS011;22291;52.250;21.228;2023-04-24T06:47:38;17.62;;;10.13;;
36253;SDS011;22291;52.250;21.228;2023-04-24T06:50:05;23.05;;;10.98;;
36253;SDS011;22291;52.250;21.228;2023-04-24T06:52:32;15.93;;;10.32;;
36253;SDS011;22291;52.250;21.228;2023-04-24T06:55:02;19.67;;;9.68;;
36253;SDS011;22291;52.250;21.228;2023-04-24T06:57:29;17.00;;;9.93;;
36253;SDS011;22291;52.250;21.228;2023-04-24T06:59:56;14.60;;;10.03;;
36253;SDS011;22291;52.250;21.228;2023-04-24T07:02:23;20.80;;;10.38;;
36253;SDS011;22291;52.250;21.228;2023-04-24T07:04:50;16.05;;;9.60;;
36253;SDS011;22291;52.250;21.228;2023-04-24T07:07:18;15.98;;;9.98;;
36253;SDS011;22291;52.250;21.228;2023-04-24T07:09:44;17.35;;;10.13;;
36253;SDS011;22291;52.250;21.228;2023-04-24T07:12:11;12.47;;;9.95;;
36253;SDS011;22291;52.250;21.228;2023-04-24T07:14:37;18.35;;;9.98;;
36253;SDS011;22291;52.250;21.228;2023-04-24T07:17:05;14.80;;;9.98;;
36253;SDS011;22291;52.250;21.228;2023-04-24T07:19:33;19.92;;;10.25;;
36253;SDS011;22291;52.250;21.228;2023-04-24T07:22:03;15.15;;;9.55;;
36253;SDS011;22291;52.250;21.228;2023-04-24T07:24:30;14.90;;;10.18;;
36253;SDS011;22291;52.250;21.228;2023-04-24T07:26:58;17.55;;;9.48;;
36253;SDS011;22291;52.250;21.228;2023-04-24T07:29:26;12.87;;;8.97;;
36253;SDS011;22291;52.250;21.228;2023-04-24T07:31:52;15.38;;;9.15;;
36253;SDS011;22291;52.250;21.228;2023-04-24T07:34:19;13.25;;;9.70;;
36253;SDS011;22291;52.250;21.228;2023-04-24T07:36:45;15.00;;;9.10;;
36253;SDS011;22291;52.250;21.228;2023-04-24T07:39:12;15.00;;;9.30;;
36253;SDS011;22291;52.250;21.228;2023-04-24T07:41:38;16.67;;;8.73;;
36253;SDS011;22291;52.250;21.228;2023-04-24T07:44:04;16.45;;;11.78;;
36253;SDS011;22291;52.250;21.228;2023-04-24T07:46:31;12.50;;;8.20;;
36253;SDS011;22291;52.250;21.228;2023-04-24T07:48:58;12.15;;;7.87;;
36253;SDS011;22291;52.250;21.228;2023-04-24T07:51:26;10.23;;;7.55;;
36253;SDS011;22291;52.250;21.228;2023-04-24T07:53:53;14.93;;;8.23;;
36253;SDS011;22291;52.250;21.228;2023-04-24T07:56:22;13.85;;;8.35;;
36253;SDS011;22291;52.250;21.228;2023-04-24T07:58:48;15.72;;;7.90;;
36253;SDS011;22291;52.250;21.228;2023-04-24T08:01:14;13.88;;;8.45;;
36253;SDS011;22291;52.250;21.228;2023-04-24T08:03:41;14.13;;;7.80;;
36253;SDS011;22291;52.250;21.228;2023-04-24T08:06:07;15.75;;;8.13;;
36253;SDS011;22291;52.250;21.228;2023-04-24T08:08:33;17.67;;;8.18;;
36253;SDS011;22291;52.250;21.228;2023-04-24T08:10:59;13.25;;;8.78;;
36253;SDS011;22291;52.250;21.228;2023-04-24T08:13:26;12.53;;;7.80;;
36253;SDS011;22291;52.250;21.228;2023-04-24T08:15:52;11.38;;;7.90;;
36253;SDS011;22291;52.250;21.228;2023-04-24T08:18:19;11.25;;;7.87;;
36253;SDS011;22291;52.250;21.228;2023-04-24T08:20:45;13.95;;;7.85;;
36253;SDS011;22291;52.250;21.228;2023-04-24T08:23:11;12.18;;;7.60;;
36253;SDS011;22291;52.250;21.228;2023-04-24T08:25:38;10.80;;;7.62;;
36253;SDS011;22291;52.250;21.228;2023-04-24T08:28:05;11.18;;;7.65;;
36253;SDS011;22291;52.250;21.228;2023-04-24T08:30:32;11.38;;;7.90;;
36253;SDS011;22291;52.250;21.228;2023-04-24T08:32:58;12.63;;;7.67;;
36253;SDS011;22291;52.250;21.228;2023-04-24T08:35:25;12.80;;;7.70;;
36253;SDS011;22291;52.250;21.228;2023-04-24T08:37:52;9.98;;;7.53;;
36253;SDS011;22291;52.250;21.228;2023-04-24T08:40:19;14.58;;;7.42;;
36253;SDS011;22291;52.250;21.228;2023-04-24T08:42:51;12.07;;;7.25;;
36253;SDS011;22291;52.250;21.228;2023-04-24T08:45:21;13.10;;;6.97;;
36253;SDS011;22291;52.250;21.228;2023-04-24T08:50:58;11.90;;;6.50;;
36253;SDS011;22291;52.250;21.228;2023-04-24T08:53:28;9.13;;;7.37;;
36253;SDS011;22291;52.250;21.228;2023-04-24T08:55:58;9.65;;;7.72;;
36253;SDS011;22291;52.250;21.228;2023-04-24T08:58:29;8.68;;;6.12;;
36253;SDS011;22291;52.250;21.228;2023-04-24T09:00:57;11.10;;;7.30;;
36253;SDS011;22291;52.250;21.228;2023-04-24T09:03:27;11.50;;;6.83;;
36253;SDS011;22291;52.250;21.228;2023-04-24T09:05:55;11.40;;;6.72;;
36253;SDS011;22291;52.250;21.228;2023-04-24T09:08:25;11.28;;;6.80;;
36253;SDS011;22291;52.250;21.228;2023-04-24T09:10:54;8.75;;;7.50;;
36253;SDS011;22291;52.250;21.228;2023-04-24T09:13:22;9.68;;;6.22;;
36253;SDS011;22291;52.250;21.228;2023-04-24T09:15:50;15.63;;;7.35;;
36253;SDS011;22291;52.250;21.228;2023-04-24T09:18:18;10.35;;;6.55;;
36253;SDS011;22291;52.250;21.228;2023-04-24T09:21:02;8.35;;;6.45;;
36253;SDS011;22291;52.250;21.228;2023-04-24T09:23:31;9.23;;;6.72;;
36253;SDS011;22291;52.250;21.228;2023-04-24T09:26:01;11.03;;;7.08;;
36253;SDS011;22291;52.250;21.228;2023-04-24T09:28:31;7.60;;;6.80;;
36253;SDS011;22291;52.250;21.228;2023-04-24T09:31:12;10.70;;;7.70;;
36253;SDS011;22291;52.250;21.228;2023-04-24T09:33:57;9.80;;;7.60;;
36253;SDS011;22291;52.250;21.228;2023-04-24T09:36:33;9.00;;;7.80;;
36253;SDS011;22291;52.250;21.228;2023-04-24T09:39:08;16.85;;;8.23;;
36253;SDS011;22291;52.250;21.228;2023-04-24T09:41:51;13.00;;;7.65;;
36253;SDS011;22291;52.250;21.228;2023-04-24T09:44:24;11.33;;;7.03;;
36253;SDS011;22291;52.250;21.228;2023-04-24T09:46:58;10.63;;;7.80;;
36253;SDS011;22291;52.250;21.228;2023-04-24T09:49:26;10.65;;;7.45;;
36253;SDS011;22291;52.250;21.228;2023-04-24T09:52:05;14.58;;;7.53;;
36253;SDS011;22291;52.250;21.228;2023-04-24T09:54:36;9.70;;;7.40;;
36253;SDS011;22291;52.250;21.228;2023-04-24T09:57:09;14.28;;;7.97;;
36253;SDS011;22291;52.250;21.228;2023-04-24T09:59:35;13.78;;;7.65;;
36253;SDS011;22291;52.250;21.228;2023-04-24T10:02:18;11.18;;;6.92;;
36253;SDS011;22291;52.250;21.228;2023-04-24T10:04:55;10.50;;;6.97;;
36253;SDS011;22291;52.250;21.228;2023-04-24T10:07:21;11.55;;;7.45;;
36253;SDS011;22291;52.250;21.228;2023-04-24T10:09:51;11.38;;;7.35;;
36253;SDS011;22291;52.250;21.228;2023-04-24T10:12:20;11.08;;;7.55;;
36253;SDS011;22291;52.250;21.228;2023-04-24T10:14:51;8.65;;;7.15;;
36253;SDS011;22291;52.250;21.228;2023-04-24T10:17:19;9.03;;;7.65;;
36253;SDS011;22291;52.250;21.228;2023-04-24T10:19:49;8.25;;;7.33;;
36253;SDS011;22291;52.250;21.228;2023-04-24T10:22:17;13.93;;;7.70;;
36253;SDS011;22291;52.250;21.228;2023-04-24T10:24:45;10.20;;;7.15;;
36253;SDS011;22291;52.250;21.228;2023-04-24T10:27:15;10.50;;;7.42;;
36253;SDS011;22291;52.250;21.228;2023-04-24T10:29:44;10.10;;;7.22;;
36253;SDS011;22291;52.250;21.228;2023-04-24T10:32:13;10.15;;;7.72;;
36253;SDS011;22291;52.250;21.228;2023-04-24T10:34:39;8.18;;;7.37;;
36253;SDS011;22291;52.250;21.228;2023-04-24T10:37:07;11.75;;;7.37;;
36253;SDS011;22291;52.250;21.228;2023-04-24T10:39:36;15.00;;;8.13;;
36253;SDS011;22291;52.250;21.228;2023-04-24T10:42:15;10.58;;;8.05;;
36253;SDS011;22291;52.250;21.228;2023-04-24T10:44:43;10.03;;;7.25;;
36253;SDS011;22291;52.250;21.228;2023-04-24T10:47:15;8.13;;;7.30;;
36253;SDS011;22291;52.250;21.228;2023-04-24T10:49:41;10.15;;;7.67;;
36253;SDS011;22291;52.250;21.228;2023-04-24T10:52:10;9.95;;;7.40;;
36253;SDS011;22291;52.250;21.228;2023-04-24T10:54:42;8.85;;;7.95;;
36253;SDS011;22291;52.250;21.228;2023-04-24T10:57:34;12.60;;;8.18;;
36253;SDS011;22291;52.250;21.228;2023-04-24T10:59:51;12.10;;;8.38;;
36253;SDS011;22291;52.250;21.228;2023-04-24T11:02:38;12.55;;;7.67;;
36253;SDS011;22291;52.250;21.228;2023-04-24T11:05:11;8.88;;;7.83;;
36253;SDS011;22291;52.250;21.228;2023-04-24T11:10:44;12.05;;;7.58;;
36253;SDS011;22291;52.250;21.228;2023-04-24T11:13:16;14.10;;;7.50;;
36253;SDS011;22291;52.250;21.228;2023-04-24T11:18:52;9.83;;;7.80;;
36253;SDS011;22291;52.250;21.228;2023-04-24T11:21:59;8.65;;;7.50;;
36253;SDS011;22291;52.250;21.228;2023-04-24T11:27:13;8.75;;;7.08;;
36253;SDS011;22291;52.250;21.228;2023-04-24T11:29:47;9.58;;;7.37;;
36253;SDS011;22291;52.250;21.228;2023-04-24T11:32:26;11.00;;;7.87;;
36253;SDS011;22291;52.250;21.228;2023-04-24T11:35:02;11.12;;;7.37;;
36253;SDS011;22291;52.250;21.228;2023-04-24T11:37:42;8.68;;;6.53;;
36253;SDS011;22291;52.250;21.228;2023-04-24T11:40:13;11.38;;;7.47;;
36253;SDS011;22291;52.250;21.228;2023-04-24T11:42:47;9.58;;;5.92;;
36253;SDS011;22291;52.250;21.228;2023-04-24T11:45:18;9.68;;;6.87;;
36253;SDS011;22291;52.250;21.228;2023-04-24T11:47:46;8.25;;;6.75;;
36253;SDS011;22291;52.250;21.228;2023-04-24T11:50:16;9.83;;;6.28;;
36253;SDS011;22291;52.250;21.228;2023-04-24T11:52:47;7.12;;;6.42;;
36253;SDS011;22291;52.250;21.228;2023-04-24T11:57:48;7.45;;;5.65;;
36253;SDS011;22291;52.250;21.228;2023-04-24T12:00:21;7.25;;;5.53;;
36253;SDS011;22291;52.250;21.228;2023-04-24T12:03:04;8.53;;;6.08;;
36253;SDS011;22291;52.250;21.228;2023-04-24T12:05:34;11.73;;;5.40;;
36253;SDS011;22291;52.250;21.228;2023-04-24T12:08:02;8.05;;;5.72;;
36253;SDS011;22291;52.250;21.228;2023-04-24T12:10:31;8.70;;;6.15;;
36253;SDS011;22291;52.250;21.228;2023-04-24T12:13:00;7.15;;;6.22;;
36253;SDS011;22291;52.250;21.228;2023-04-24T12:15:28;10.53;;;5.90;;
36253;SDS011;22291;52.250;21.228;2023-04-24T12:17:56;9.85;;;5.40;;
36253;SDS011;22291;52.250;21.228;2023-04-24T12:20:26;11.25;;;5.58;;
36253;SDS011;22291;52.250;21.228;2023-04-24T12:22:59;17.37;;;6.60;;
36253;SDS011;22291;52.250;21.228;2023-04-24T12:25:27;6.27;;;5.30;;
36253;SDS011;22291;52.250;21.228;2023-04-24T12:30:43;7.33;;;5.58;;
36253;SDS011;22291;52.250;21.228;2023-04-24T12:35:45;8.55;;;5.60;;
36253;SDS011;22291;52.250;21.228;2023-04-24T12:38:13;7.15;;;5.37;;
36253;SDS011;22291;52.250;21.228;2023-04-24T12:40:41;9.43;;;6.37;;
36253;SDS011;22291;52.250;21.228;2023-04-24T12:43:15;8.05;;;6.33;;
36253;SDS011;22291;52.250;21.228;2023-04-24T12:45:44;11.00;;;6.20;;
36253;SDS011;22291;52.250;21.228;2023-04-24T12:48:10;11.43;;;6.20;;
36253;SDS011;22291;52.250;21.228;2023-04-24T12:50:39;9.90;;;5.85;;
36253;SDS011;22291;52.250;21.228;2023-04-24T12:53:06;8.53;;;6.35;;
36253;SDS011;22291;52.250;21.228;2023-04-24T12:55:34;6.87;;;5.37;;
36253;SDS011;22291;52.250;21.228;2023-04-24T12:58:02;8.95;;;5.53;;
36253;SDS011;22291;52.250;21.228;2023-04-24T13:00:28;7.67;;;6.87;;
36253;SDS011;22291;52.250;21.228;2023-04-24T13:02:55;6.45;;;5.50;;
36253;SDS011;22291;52.250;21.228;2023-04-24T13:05:21;9.33;;;5.47;;
36253;SDS011;22291;52.250;21.228;2023-04-24T13:07:47;15.00;;;5.00;;
36253;SDS011;22291;52.250;21.228;2023-04-24T13:10:14;9.25;;;5.03;;
36253;SDS011;22291;52.250;21.228;2023-04-24T13:12:40;6.62;;;4.50;;
36253;SDS011;22291;52.250;21.228;2023-04-24T13:15:07;15.10;;;5.00;;
36253;SDS011;22291;52.250;21.228;2023-04-24T13:17:34;10.35;;;5.17;;
36253;SDS011;22291;52.250;21.228;2023-04-24T13:20:01;8.28;;;4.85;;
36253;SDS011;22291;52.250;21.228;2023-04-24T13:22:28;10.35;;;5.00;;
36253;SDS011;22291;52.250;21.228;2023-04-24T13:24:54;11.12;;;4.70;;
36253;SDS011;22291;52.250;21.228;2023-04-24T13:27:21;13.08;;;4.85;;
36253;SDS011;22291;52.250;21.228;2023-04-24T13:29:48;7.30;;;5.03;;
36253;SDS011;22291;52.250;21.228;2023-04-24T13:32:14;10.78;;;5.78;;
36253;SDS011;22291;52.250;21.228;2023-04-24T13:34:40;11.20;;;5.95;;
36253;SDS011;22291;52.250;21.228;2023-04-24T13:37:07;8.33;;;6.30;;
36253;SDS011;22291;52.250;21.228;2023-04-24T13:39:35;8.80;;;6.22;;
36253;SDS011;22291;52.250;21.228;2023-04-24T13:42:01;6.25;;;5.65;;
36253;SDS011;22291;52.250;21.228;2023-04-24T13:44:28;7.60;;;5.00;;
36253;SDS011;22291;52.250;21.228;2023-04-24T13:46:55;7.37;;;5.92;;
36253;SDS011;22291;52.250;21.228;2023-04-24T13:49:22;9.65;;;5.72;;
36253;SDS011;22291;52.250;21.228;2023-04-24T13:51:51;11.63;;;6.07;;
36253;SDS011;22291;52.250;21.228;2023-04-24T13:54:19;8.45;;;5.92;;
36253;SDS011;22291;52.250;21.228;2023-04-24T13:56:45;6.58;;;5.87;;
36253;SDS011;22291;52.250;21.228;2023-04-24T13:59:12;9.33;;;5.45;;
36253;SDS011;22291;52.250;21.228;2023-04-24T14:01:39;8.38;;;6.40;;
36253;SDS011;22291;52.250;21.228;2023-04-24T14:04:05;13.60;;;7.28;;
36253;SDS011;22291;52.250;21.228;2023-04-24T14:06:32;10.53;;;6.00;;
36253;SDS011;22291;52.250;21.228;2023-04-24T14:08:59;7.53;;;5.95;;
36253;SDS011;22291;52.250;21.228;2023-04-24T14:11:26;10.40;;;6.17;;
36253;SDS011;22291;52.250;21.228;2023-04-24T14:13:54;11.45;;;6.85;;
36253;SDS011;22291;52.250;21.228;2023-04-24T14:16:24;7.25;;;5.87;;
36253;SDS011;22291;52.250;21.228;2023-04-24T14:18:51;8.53;;;5.42;;
36253;SDS011;22291;52.250;21.228;2023-04-24T14:21:17;7.10;;;5.60;;
36253;SDS011;22291;52.250;21.228;2023-04-24T14:23:44;8.85;;;5.30;;
36253;SDS011;22291;52.250;21.228;2023-04-24T14:26:11;6.40;;;4.83;;
36253;SDS011;22291;52.250;21.228;2023-04-24T14:28:41;9.33;;;5.12;;
36253;SDS011;22291;52.250;21.228;2023-04-24T14:31:07;6.80;;;4.75;;
36253;SDS011;22291;52.250;21.228;2023-04-24T14:33:36;7.97;;;5.17;;
36253;SDS011;22291;52.250;21.228;2023-04-24T14:36:02;5.17;;;4.17;;
36253;SDS011;22291;52.250;21.228;2023-04-24T14:38:31;6.17;;;4.87;;
36253;SDS011;22291;52.250;21.228;2023-04-24T14:40:57;4.83;;;4.42;;
36253;SDS011;22291;52.250;21.228;2023-04-24T14:43:24;5.22;;;4.70;;